sensor_id;sensor_type;location;lat;lon;timestamp;P1;durP1;ratioP1;P2;durP2;ratioP2
75044;SDS011;63614;56.026;35.960;2023-03-04T00:01:41;7.05;;;2.50;;
75044;SDS011;63614;56.026;35.960;2023-03-04T00:04:06;8.55;;;2.47;;
75044;SDS011;63614;56.026;35.960;2023-03-04T00:06:32;4.88;;;2.45;;
75044;SDS011;63614;56.026;35.960;2023-03-04T00:08:58;15.90;;;2.97;;
75044;SDS011;63614;56.026;35.960;2023-03-04T00:11:24;9.63;;;2.92;;
75044;SDS011;63614;56.026;35.960;2023-03-04T00:13:50;7.38;;;2.50;;
75044;SDS011;63614;56.026;35.960;2023-03-04T00:16:16;8.48;;;2.55;;
75044;SDS011;63614;56.026;35.960;2023-03-04T00:18:41;8.15;;;2.85;;
75044;SDS011;63614;56.026;35.960;2023-03-04T00:21:07;8.23;;;2.25;;
75044;SDS011;63614;56.026;35.960;2023-03-04T00:23:33;8.80;;;2.90;;
75044;SDS011;63614;56.026;35.960;2023-03-04T00:25:58;12.75;;;3.25;;
75044;SDS011;63614;56.026;35.960;2023-03-04T00:28:24;6.20;;;2.47;;
75044;SDS011;63614;56.026;35.960;2023-03-04T00:30:50;5.43;;;2.10;;
75044;SDS011;63614;56.026;35.960;2023-03-04T00:33:16;10.82;;;2.53;;
75044;SDS011;63614;56.026;35.960;2023-03-04T00:35:42;5.00;;;1.80;;
75044;SDS011;63614;56.026;35.960;2023-03-04T00:38:07;11.57;;;3.13;;
75044;SDS011;63614;56.026;35.960;2023-03-04T00:40:34;13.07;;;2.57;;
75044;SDS011;63614;56.026;35.960;2023-03-04T00:43:01;7.82;;;2.25;;
75044;SDS011;63614;56.026;35.960;2023-03-04T00:45:27;7.05;;;2.30;;
75044;SDS011;63614;56.026;35.960;2023-03-04T00:47:52;5.93;;;1.85;;
75044;SDS011;63614;56.026;35.960;2023-03-04T00:50:18;5.32;;;2.05;;
75044;SDS011;63614;56.026;35.960;2023-03-04T00:52:44;5.57;;;1.77;;
75044;SDS011;63614;56.026;35.960;2023-03-04T00:55:10;9.85;;;1.85;;
75044;SDS011;63614;56.026;35.960;2023-03-04T00:57:36;5.07;;;2.10;;
75044;SDS011;63614;56.026;35.960;2023-03-04T01:00:02;5.70;;;2.10;;
75044;SDS011;63614;56.026;35.960;2023-03-04T01:02:30;8.05;;;2.13;;
75044;SDS011;63614;56.026;35.960;2023-03-04T01:04:56;6.18;;;2.30;;
75044;SDS011;63614;56.026;35.960;2023-03-04T01:07:21;5.40;;;2.10;;
75044;SDS011;63614;56.026;35.960;2023-03-04T01:09:47;4.97;;;2.13;;
75044;SDS011;63614;56.026;35.960;2023-03-04T01:12:13;4.43;;;2.08;;
75044;SDS011;63614;56.026;35.960;2023-03-04T01:14:39;6.38;;;1.92;;
75044;SDS011;63614;56.026;35.960;2023-03-04T01:17:05;8.15;;;2.30;;
75044;SDS011;63614;56.026;35.960;2023-03-04T01:19:31;6.82;;;1.90;;
75044;SDS011;63614;56.026;35.960;2023-03-04T01:21:57;6.65;;;2.20;;
75044;SDS011;63614;56.026;35.960;2023-03-04T01:24:23;7.72;;;1.75;;
75044;SDS011;63614;56.026;35.960;2023-03-04T01:26:49;5.50;;;1.83;;
75044;SDS011;63614;56.026;35.960;2023-03-04T01:29:15;6.47;;;1.80;;
75044;SDS011;63614;56.026;35.960;2023-03-04T01:31:41;5.72;;;1.90;;
75044;SDS011;63614;56.026;35.960;2023-03-04T01:34:07;6.70;;;1.70;;
75044;SDS011;63614;56.026;35.960;2023-03-04T01:36:35;8.48;;;1.92;;
75044;SDS011;63614;56.026;35.960;2023-03-04T01:39:01;7.65;;;2.08;;
75044;SDS011;63614;56.026;35.960;2023-03-04T01:41:27;7.03;;;1.95;;
75044;SDS011;63614;56.026;35.960;2023-03-04T01:43:56;6.45;;;1.95;;
75044;SDS011;63614;56.026;35.960;2023-03-04T01:46:25;15.90;;;2.40;;
75044;SDS011;63614;56.026;35.960;2023-03-04T01:48:51;8.02;;;2.30;;
75044;SDS011;63614;56.026;35.960;2023-03-04T01:51:17;9.45;;;2.38;;
75044;SDS011;63614;56.026;35.960;2023-03-04T01:53:46;7.20;;;2.40;;
75044;SDS011;63614;56.026;35.960;2023-03-04T02:01:37;4.88;;;2.08;;
75044;SDS011;63614;56.026;35.960;2023-03-04T02:04:05;4.55;;;2.00;;
75044;SDS011;63614;56.026;35.960;2023-03-04T02:06:32;4.20;;;1.75;;
75044;SDS011;63614;56.026;35.960;2023-03-04T02:08:59;6.72;;;1.80;;
75044;SDS011;63614;56.026;35.960;2023-03-04T02:11:25;6.82;;;2.20;;
75044;SDS011;63614;56.026;35.960;2023-03-04T02:13:51;7.60;;;2.05;;
75044;SDS011;63614;56.026;35.960;2023-03-04T02:16:17;4.50;;;1.80;;
75044;SDS011;63614;56.026;35.960;2023-03-04T02:18:43;6.30;;;2.10;;
75044;SDS011;63614;56.026;35.960;2023-03-04T02:21:22;7.22;;;2.33;;
75044;SDS011;63614;56.026;35.960;2023-03-04T02:24:13;5.82;;;2.10;;
75044;SDS011;63614;56.026;35.960;2023-03-04T02:26:39;11.00;;;2.38;;
75044;SDS011;63614;56.026;35.960;2023-03-04T02:29:10;4.53;;;1.92;;
75044;SDS011;63614;56.026;35.960;2023-03-04T02:31:38;7.37;;;2.27;;
75044;SDS011;63614;56.026;35.960;2023-03-04T02:34:07;7.10;;;2.28;;
75044;SDS011;63614;56.026;35.960;2023-03-04T02:36:38;5.65;;;2.35;;
75044;SDS011;63614;56.026;35.960;2023-03-04T02:41:40;8.70;;;3.53;;
75044;SDS011;63614;56.026;35.960;2023-03-04T02:44:14;9.43;;;3.35;;
75044;SDS011;63614;56.026;35.960;2023-03-04T02:46:51;5.95;;;2.60;;
75044;SDS011;63614;56.026;35.960;2023-03-04T02:49:18;10.20;;;2.90;;
75044;SDS011;63614;56.026;35.960;2023-03-04T02:51:44;9.15;;;2.65;;
75044;SDS011;63614;56.026;35.960;2023-03-04T02:54:17;5.03;;;2.40;;
75044;SDS011;63614;56.026;35.960;2023-03-04T02:56:57;6.75;;;2.58;;
75044;SDS011;63614;56.026;35.960;2023-03-04T02:59:25;8.23;;;3.20;;
75044;SDS011;63614;56.026;35.960;2023-03-04T03:01:51;8.95;;;3.97;;
75044;SDS011;63614;56.026;35.960;2023-03-04T03:04:18;15.88;;;4.68;;
75044;SDS011;63614;56.026;35.960;2023-03-04T03:06:47;14.93;;;4.45;;
75044;SDS011;63614;56.026;35.960;2023-03-04T03:09:13;7.53;;;3.45;;
75044;SDS011;63614;56.026;35.960;2023-03-04T03:11:40;7.80;;;3.40;;
75044;SDS011;63614;56.026;35.960;2023-03-04T03:14:07;10.25;;;4.00;;
75044;SDS011;63614;56.026;35.960;2023-03-04T03:16:32;8.77;;;3.28;;
75044;SDS011;63614;56.026;35.960;2023-03-04T03:18:59;9.35;;;3.35;;
75044;SDS011;63614;56.026;35.960;2023-03-04T03:21:25;9.05;;;3.30;;
75044;SDS011;63614;56.026;35.960;2023-03-04T03:23:50;13.05;;;3.83;;
75044;SDS011;63614;56.026;35.960;2023-03-04T03:26:16;9.48;;;3.72;;
75044;SDS011;63614;56.026;35.960;2023-03-04T03:28:43;9.30;;;3.72;;
75044;SDS011;63614;56.026;35.960;2023-03-04T03:31:08;10.00;;;3.60;;
75044;SDS011;63614;56.026;35.960;2023-03-04T03:33:34;11.48;;;4.05;;
75044;SDS011;63614;56.026;35.960;2023-03-04T03:36:00;11.25;;;4.20;;
75044;SDS011;63614;56.026;35.960;2023-03-04T03:38:27;14.57;;;4.72;;
75044;SDS011;63614;56.026;35.960;2023-03-04T03:40:53;10.80;;;4.38;;
75044;SDS011;63614;56.026;35.960;2023-03-04T03:43:18;10.98;;;4.13;;
75044;SDS011;63614;56.026;35.960;2023-03-04T03:45:44;13.07;;;3.72;;
75044;SDS011;63614;56.026;35.960;2023-03-04T03:48:10;8.38;;;3.50;;
75044;SDS011;63614;56.026;35.960;2023-03-04T03:50:36;8.38;;;3.42;;
75044;SDS011;63614;56.026;35.960;2023-03-04T03:53:01;7.15;;;3.10;;
75044;SDS011;63614;56.026;35.960;2023-03-04T03:55:28;7.75;;;3.60;;
75044;SDS011;63614;56.026;35.960;2023-03-04T03:57:53;9.65;;;4.78;;
75044;SDS011;63614;56.026;35.960;2023-03-04T04:00:20;12.32;;;4.00;;
75044;SDS011;63614;56.026;35.960;2023-03-04T04:02:46;11.30;;;5.03;;
75044;SDS011;63614;56.026;35.960;2023-03-04T04:05:12;9.40;;;4.47;;
75044;SDS011;63614;56.026;35.960;2023-03-04T04:07:38;9.60;;;4.55;;
75044;SDS011;63614;56.026;35.960;2023-03-04T04:10:03;6.80;;;4.32;;
75044;SDS011;63614;56.026;35.960;2023-03-04T04:12:30;9.20;;;4.57;;
75044;SDS011;63614;56.026;35.960;2023-03-04T04:14:56;8.20;;;4.50;;
75044;SDS011;63614;56.026;35.960;2023-03-04T04:17:22;9.20;;;4.40;;
75044;SDS011;63614;56.026;35.960;2023-03-04T04:19:47;10.23;;;4.15;;
75044;SDS011;63614;56.026;35.960;2023-03-04T04:22:15;10.48;;;3.47;;
75044;SDS011;63614;56.026;35.960;2023-03-04T04:24:42;8.00;;;3.78;;
75044;SDS011;63614;56.026;35.960;2023-03-04T04:27:08;10.25;;;3.60;;
75044;SDS011;63614;56.026;35.960;2023-03-04T04:29:34;15.50;;;4.25;;
75044;SDS011;63614;56.026;35.960;2023-03-04T04:32:00;6.63;;;3.60;;
75044;SDS011;63614;56.026;35.960;2023-03-04T04:34:26;11.02;;;3.92;;
75044;SDS011;63614;56.026;35.960;2023-03-04T04:36:52;8.23;;;3.90;;
75044;SDS011;63614;56.026;35.960;2023-03-04T04:39:18;10.10;;;3.72;;
75044;SDS011;63614;56.026;35.960;2023-03-04T04:41:44;8.18;;;3.38;;
75044;SDS011;63614;56.026;35.960;2023-03-04T04:44:10;8.98;;;3.10;;
75044;SDS011;63614;56.026;35.960;2023-03-04T04:46:37;9.00;;;3.45;;
75044;SDS011;63614;56.026;35.960;2023-03-04T04:49:03;9.38;;;4.03;;
75044;SDS011;63614;56.026;35.960;2023-03-04T04:51:30;10.05;;;4.85;;
75044;SDS011;63614;56.026;35.960;2023-03-04T04:53:57;9.02;;;4.43;;
75044;SDS011;63614;56.026;35.960;2023-03-04T04:56:23;7.15;;;3.15;;
75044;SDS011;63614;56.026;35.960;2023-03-04T04:58:51;10.25;;;3.05;;
75044;SDS011;63614;56.026;35.960;2023-03-04T05:01:17;6.82;;;2.55;;
75044;SDS011;63614;56.026;35.960;2023-03-04T05:03:43;7.25;;;2.65;;
75044;SDS011;63614;56.026;35.960;2023-03-04T05:06:10;8.43;;;2.45;;
75044;SDS011;63614;56.026;35.960;2023-03-04T05:08:37;5.72;;;2.50;;
75044;SDS011;63614;56.026;35.960;2023-03-04T05:11:03;11.15;;;2.83;;
75044;SDS011;63614;56.026;35.960;2023-03-04T05:13:30;10.20;;;2.77;;
75044;SDS011;63614;56.026;35.960;2023-03-04T05:15:56;6.13;;;2.65;;
75044;SDS011;63614;56.026;35.960;2023-03-04T05:18:23;10.30;;;3.15;;
75044;SDS011;63614;56.026;35.960;2023-03-04T05:20:54;7.55;;;2.75;;
75044;SDS011;63614;56.026;35.960;2023-03-04T05:23:22;6.85;;;2.80;;
75044;SDS011;63614;56.026;35.960;2023-03-04T05:25:48;7.30;;;2.78;;
75044;SDS011;63614;56.026;35.960;2023-03-04T05:28:14;8.32;;;3.33;;
75044;SDS011;63614;56.026;35.960;2023-03-04T05:30:41;6.68;;;3.35;;
75044;SDS011;63614;56.026;35.960;2023-03-04T05:33:08;7.60;;;2.92;;
75044;SDS011;63614;56.026;35.960;2023-03-04T05:35:35;4.95;;;2.50;;
75044;SDS011;63614;56.026;35.960;2023-03-04T05:38:03;4.75;;;2.30;;
75044;SDS011;63614;56.026;35.960;2023-03-04T05:40:30;4.78;;;2.63;;
75044;SDS011;63614;56.026;35.960;2023-03-04T05:42:56;6.43;;;2.83;;
75044;SDS011;63614;56.026;35.960;2023-03-04T05:45:22;10.35;;;3.47;;
75044;SDS011;63614;56.026;35.960;2023-03-04T05:47:48;6.55;;;2.80;;
75044;SDS011;63614;56.026;35.960;2023-03-04T05:50:14;5.90;;;2.80;;
75044;SDS011;63614;56.026;35.960;2023-03-04T05:52:40;6.47;;;3.10;;
75044;SDS011;63614;56.026;35.960;2023-03-04T05:55:06;6.38;;;3.15;;
75044;SDS011;63614;56.026;35.960;2023-03-04T05:57:32;8.18;;;3.00;;
75044;SDS011;63614;56.026;35.960;2023-03-04T05:59:58;7.40;;;3.40;;
75044;SDS011;63614;56.026;35.960;2023-03-04T06:02:24;7.50;;;3.38;;
75044;SDS011;63614;56.026;35.960;2023-03-04T06:04:49;6.22;;;3.22;;
75044;SDS011;63614;56.026;35.960;2023-03-04T06:07:15;5.60;;;2.85;;
75044;SDS011;63614;56.026;35.960;2023-03-04T06:09:41;8.57;;;3.00;;
75044;SDS011;63614;56.026;35.960;2023-03-04T06:14:35;8.48;;;3.50;;
75044;SDS011;63614;56.026;35.960;2023-03-04T06:17:01;6.68;;;3.47;;
75044;SDS011;63614;56.026;35.960;2023-03-04T06:19:27;10.57;;;4.05;;
75044;SDS011;63614;56.026;35.960;2023-03-04T06:21:52;11.40;;;3.70;;
75044;SDS011;63614;56.026;35.960;2023-03-04T06:24:18;7.93;;;3.83;;
75044;SDS011;63614;56.026;35.960;2023-03-04T06:26:44;5.75;;;3.70;;
75044;SDS011;63614;56.026;35.960;2023-03-04T06:29:10;10.27;;;4.20;;
75044;SDS011;63614;56.026;35.960;2023-03-04T06:31:36;6.93;;;4.13;;
75044;SDS011;63614;56.026;35.960;2023-03-04T06:34:01;7.85;;;4.05;;
75044;SDS011;63614;56.026;35.960;2023-03-04T06:36:27;9.60;;;4.18;;
75044;SDS011;63614;56.026;35.960;2023-03-04T06:38:53;14.75;;;5.18;;
75044;SDS011;63614;56.026;35.960;2023-03-04T06:41:19;16.88;;;4.70;;
75044;SDS011;63614;56.026;35.960;2023-03-04T06:43:45;9.25;;;4.28;;
75044;SDS011;63614;56.026;35.960;2023-03-04T06:46:11;12.15;;;4.93;;
75044;SDS011;63614;56.026;35.960;2023-03-04T06:48:36;16.85;;;4.50;;
75044;SDS011;63614;56.026;35.960;2023-03-04T06:51:09;8.35;;;4.13;;
75044;SDS011;63614;56.026;35.960;2023-03-04T06:53:36;9.95;;;4.40;;
75044;SDS011;63614;56.026;35.960;2023-03-04T06:56:03;8.32;;;4.28;;
75044;SDS011;63614;56.026;35.960;2023-03-04T06:58:29;11.38;;;4.18;;
75044;SDS011;63614;56.026;35.960;2023-03-04T07:00:55;9.15;;;5.13;;
75044;SDS011;63614;56.026;35.960;2023-03-04T07:03:21;8.63;;;4.25;;
75044;SDS011;63614;56.026;35.960;2023-03-04T07:05:47;7.07;;;3.92;;
75044;SDS011;63614;56.026;35.960;2023-03-04T07:08:13;8.05;;;4.38;;
75044;SDS011;63614;56.026;35.960;2023-03-04T07:10:39;8.00;;;4.30;;
75044;SDS011;63614;56.026;35.960;2023-03-04T07:13:05;13.48;;;4.43;;
75044;SDS011;63614;56.026;35.960;2023-03-04T07:15:31;7.32;;;3.63;;
75044;SDS011;63614;56.026;35.960;2023-03-04T07:17:56;12.30;;;4.78;;
75044;SDS011;63614;56.026;35.960;2023-03-04T07:20:22;9.55;;;4.05;;
75044;SDS011;63614;56.026;35.960;2023-03-04T07:22:48;9.73;;;3.70;;
75044;SDS011;63614;56.026;35.960;2023-03-04T07:25:14;5.65;;;3.53;;
75044;SDS011;63614;56.026;35.960;2023-03-04T07:27:41;6.65;;;3.40;;
75044;SDS011;63614;56.026;35.960;2023-03-04T07:30:07;6.47;;;3.47;;
75044;SDS011;63614;56.026;35.960;2023-03-04T07:32:34;7.22;;;3.90;;
75044;SDS011;63614;56.026;35.960;2023-03-04T07:35:01;5.95;;;3.33;;
75044;SDS011;63614;56.026;35.960;2023-03-04T07:37:29;7.88;;;3.92;;
75044;SDS011;63614;56.026;35.960;2023-03-04T07:39:55;9.75;;;3.67;;
75044;SDS011;63614;56.026;35.960;2023-03-04T07:42:21;7.80;;;3.10;;
75044;SDS011;63614;56.026;35.960;2023-03-04T07:44:54;5.15;;;3.13;;
75044;SDS011;63614;56.026;35.960;2023-03-04T07:47:20;8.88;;;3.47;;
75044;SDS011;63614;56.026;35.960;2023-03-04T07:49:45;5.65;;;3.13;;
75044;SDS011;63614;56.026;35.960;2023-03-04T07:52:11;7.68;;;3.20;;
75044;SDS011;63614;56.026;35.960;2023-03-04T07:54:38;7.80;;;3.30;;
75044;SDS011;63614;56.026;35.960;2023-03-04T07:57:04;5.22;;;3.20;;
75044;SDS011;63614;56.026;35.960;2023-03-04T07:59:30;7.47;;;3.10;;
75044;SDS011;63614;56.026;35.960;2023-03-04T08:01:56;5.10;;;2.60;;
75044;SDS011;63614;56.026;35.960;2023-03-04T08:04:21;4.88;;;2.85;;
75044;SDS011;63614;56.026;35.960;2023-03-04T08:06:48;4.80;;;2.90;;
75044;SDS011;63614;56.026;35.960;2023-03-04T08:09:15;8.55;;;2.88;;
75044;SDS011;63614;56.026;35.960;2023-03-04T08:11:40;4.80;;;2.42;;
75044;SDS011;63614;56.026;35.960;2023-03-04T08:14:06;5.35;;;2.72;;
75044;SDS011;63614;56.026;35.960;2023-03-04T08:16:34;5.68;;;2.40;;
75044;SDS011;63614;56.026;35.960;2023-03-04T08:19:01;6.05;;;2.28;;
75044;SDS011;63614;56.026;35.960;2023-03-04T08:21:28;5.57;;;1.98;;
75044;SDS011;63614;56.026;35.960;2023-03-04T08:23:55;4.88;;;2.08;;
75044;SDS011;63614;56.026;35.960;2023-03-04T08:26:27;4.10;;;1.85;;
75044;SDS011;63614;56.026;35.960;2023-03-04T08:28:59;5.53;;;2.53;;
75044;SDS011;63614;56.026;35.960;2023-03-04T08:31:27;3.08;;;2.03;;
75044;SDS011;63614;56.026;35.960;2023-03-04T08:33:53;5.53;;;1.95;;
75044;SDS011;63614;56.026;35.960;2023-03-04T08:36:19;4.32;;;2.10;;
75044;SDS011;63614;56.026;35.960;2023-03-04T08:38:45;6.28;;;2.08;;
75044;SDS011;63614;56.026;35.960;2023-03-04T08:41:11;3.65;;;1.77;;
75044;SDS011;63614;56.026;35.960;2023-03-04T08:43:37;4.20;;;1.73;;
75044;SDS011;63614;56.026;35.960;2023-03-04T08:46:03;3.20;;;1.73;;
75044;SDS011;63614;56.026;35.960;2023-03-04T08:48:29;5.00;;;1.98;;
75044;SDS011;63614;56.026;35.960;2023-03-04T08:50:55;7.13;;;1.63;;
75044;SDS011;63614;56.026;35.960;2023-03-04T08:53:21;7.13;;;1.70;;
75044;SDS011;63614;56.026;35.960;2023-03-04T08:55:47;3.10;;;1.38;;
75044;SDS011;63614;56.026;35.960;2023-03-04T08:58:15;4.80;;;1.77;;
75044;SDS011;63614;56.026;35.960;2023-03-04T09:00:41;3.38;;;1.63;;
75044;SDS011;63614;56.026;35.960;2023-03-04T09:03:12;4.57;;;1.90;;
75044;SDS011;63614;56.026;35.960;2023-03-04T09:05:39;8.57;;;1.80;;
75044;SDS011;63614;56.026;35.960;2023-03-04T09:08:06;4.40;;;1.95;;
75044;SDS011;63614;56.026;35.960;2023-03-04T09:10:32;3.50;;;1.63;;
75044;SDS011;63614;56.026;35.960;2023-03-04T09:12:58;3.30;;;1.65;;
75044;SDS011;63614;56.026;35.960;2023-03-04T09:15:25;5.10;;;1.80;;
75044;SDS011;63614;56.026;35.960;2023-03-04T09:17:51;4.65;;;1.95;;
75044;SDS011;63614;56.026;35.960;2023-03-04T09:20:16;4.90;;;1.75;;
75044;SDS011;63614;56.026;35.960;2023-03-04T09:22:42;7.22;;;1.85;;
75044;SDS011;63614;56.026;35.960;2023-03-04T09:25:09;5.57;;;1.70;;
75044;SDS011;63614;56.026;35.960;2023-03-04T09:27:38;7.97;;;1.90;;
75044;SDS011;63614;56.026;35.960;2023-03-04T09:30:05;5.25;;;1.92;;
75044;SDS011;63614;56.026;35.960;2023-03-04T09:32:31;8.13;;;1.87;;
75044;SDS011;63614;56.026;35.960;2023-03-04T09:34:57;8.48;;;1.80;;
75044;SDS011;63614;56.026;35.960;2023-03-04T09:37:23;8.30;;;2.00;;
75044;SDS011;63614;56.026;35.960;2023-03-04T09:39:48;4.85;;;2.00;;
75044;SDS011;63614;56.026;35.960;2023-03-04T09:42:20;3.33;;;1.90;;
75044;SDS011;63614;56.026;35.960;2023-03-04T09:44:51;4.72;;;1.80;;
75044;SDS011;63614;56.026;35.960;2023-03-04T09:47:18;4.50;;;1.52;;
75044;SDS011;63614;56.026;35.960;2023-03-04T09:49:56;3.13;;;1.52;;
75044;SDS011;63614;56.026;35.960;2023-03-04T10:01:02;6.47;;;1.90;;
75044;SDS011;63614;56.026;35.960;2023-03-04T10:06:09;4.38;;;1.90;;
75044;SDS011;63614;56.026;35.960;2023-03-04T10:08:42;3.53;;;1.60;;
75044;SDS011;63614;56.026;35.960;2023-03-04T10:11:24;3.50;;;1.80;;
75044;SDS011;63614;56.026;35.960;2023-03-04T10:17:02;4.60;;;1.50;;
75044;SDS011;63614;56.026;35.960;2023-03-04T10:24:56;3.38;;;1.45;;
75044;SDS011;63614;56.026;35.960;2023-03-04T10:27:23;2.75;;;1.70;;
75044;SDS011;63614;56.026;35.960;2023-03-04T10:29:50;3.72;;;2.10;;
75044;SDS011;63614;56.026;35.960;2023-03-04T10:32:17;3.25;;;1.70;;
75044;SDS011;63614;56.026;35.960;2023-03-04T10:34:47;2.95;;;1.80;;
75044;SDS011;63614;56.026;35.960;2023-03-04T10:37:13;5.57;;;1.80;;
75044;SDS011;63614;56.026;35.960;2023-03-04T10:39:43;3.85;;;1.80;;
75044;SDS011;63614;56.026;35.960;2023-03-04T10:44:43;3.55;;;1.92;;
75044;SDS011;63614;56.026;35.960;2023-03-04T10:47:21;3.55;;;1.83;;
75044;SDS011;63614;56.026;35.960;2023-03-04T10:49:50;3.92;;;1.80;;
75044;SDS011;63614;56.026;35.960;2023-03-04T10:54:50;4.57;;;2.30;;
75044;SDS011;63614;56.026;35.960;2023-03-04T10:57:19;6.20;;;2.00;;
75044;SDS011;63614;56.026;35.960;2023-03-04T10:59:54;3.00;;;2.00;;
75044;SDS011;63614;56.026;35.960;2023-03-04T11:04:49;4.63;;;2.00;;
75044;SDS011;63614;56.026;35.960;2023-03-04T11:07:36;3.05;;;1.90;;
75044;SDS011;63614;56.026;35.960;2023-03-04T11:12:51;3.25;;;2.00;;
75044;SDS011;63614;56.026;35.960;2023-03-04T11:15:25;3.65;;;1.90;;
75044;SDS011;63614;56.026;35.960;2023-03-04T11:17:54;3.00;;;1.80;;
75044;SDS011;63614;56.026;35.960;2023-03-04T11:20:44;3.08;;;1.88;;
75044;SDS011;63614;56.026;35.960;2023-03-04T11:25:40;3.92;;;1.60;;
75044;SDS011;63614;56.026;35.960;2023-03-04T11:28:13;5.72;;;1.77;;
75044;SDS011;63614;56.026;35.960;2023-03-04T11:30:56;5.15;;;2.00;;
75044;SDS011;63614;56.026;35.960;2023-03-04T11:33:40;3.55;;;2.00;;
75044;SDS011;63614;56.026;35.960;2023-03-04T11:39:16;4.68;;;2.00;;
75044;SDS011;63614;56.026;35.960;2023-03-04T11:41:51;4.97;;;2.03;;
75044;SDS011;63614;56.026;35.960;2023-03-04T11:44:22;8.52;;;1.92;;
75044;SDS011;63614;56.026;35.960;2023-03-04T11:47:13;2.78;;;1.65;;
75044;SDS011;63614;56.026;35.960;2023-03-04T11:56:21;3.08;;;1.80;;
75044;SDS011;63614;56.026;35.960;2023-03-04T12:01:08;3.25;;;1.83;;
75044;SDS011;63614;56.026;35.960;2023-03-04T12:20:57;4.35;;;1.60;;
75044;SDS011;63614;56.026;35.960;2023-03-04T12:26:37;2.92;;;1.85;;
75044;SDS011;63614;56.026;35.960;2023-03-04T12:37:50;3.72;;;1.77;;
75044;SDS011;63614;56.026;35.960;2023-03-04T12:40:29;5.32;;;1.88;;
75044;SDS011;63614;56.026;35.960;2023-03-04T12:43:07;3.85;;;1.95;;
75044;SDS011;63614;56.026;35.960;2023-03-04T12:48:38;3.15;;;2.00;;
75044;SDS011;63614;56.026;35.960;2023-03-04T12:51:12;3.38;;;1.95;;
75044;SDS011;63614;56.026;35.960;2023-03-04T12:54:22;4.50;;;2.13;;
75044;SDS011;63614;56.026;35.960;2023-03-04T12:56:52;2.58;;;1.60;;
75044;SDS011;63614;56.026;35.960;2023-03-04T12:59:21;5.53;;;1.98;;
75044;SDS011;63614;56.026;35.960;2023-03-04T13:05:07;3.00;;;2.00;;
75044;SDS011;63614;56.026;35.960;2023-03-04T13:10:31;4.28;;;2.17;;
75044;SDS011;63614;56.026;35.960;2023-03-04T13:12:58;3.58;;;1.95;;
75044;SDS011;63614;56.026;35.960;2023-03-04T13:15:30;3.63;;;2.05;;
75044;SDS011;63614;56.026;35.960;2023-03-04T13:18:02;2.83;;;1.83;;
75044;SDS011;63614;56.026;35.960;2023-03-04T13:22:58;2.75;;;1.70;;
75044;SDS011;63614;56.026;35.960;2023-03-04T13:25:33;2.70;;;1.88;;
75044;SDS011;63614;56.026;35.960;2023-03-04T13:28:11;3.30;;;2.20;;
75044;SDS011;63614;56.026;35.960;2023-03-04T13:43:53;3.38;;;2.30;;
75044;SDS011;63614;56.026;35.960;2023-03-04T13:56:40;14.82;;;7.15;;
75044;SDS011;63614;56.026;35.960;2023-03-04T14:06:50;8.55;;;4.47;;
75044;SDS011;63614;56.026;35.960;2023-03-04T14:11:47;5.35;;;3.22;;
75044;SDS011;63614;56.026;35.960;2023-03-04T14:14:16;4.82;;;2.97;;
75044;SDS011;63614;56.026;35.960;2023-03-04T14:24:19;3.83;;;2.15;;
75044;SDS011;63614;56.026;35.960;2023-03-04T14:26:46;3.53;;;2.55;;
75044;SDS011;63614;56.026;35.960;2023-03-04T14:29:20;3.75;;;2.40;;
75044;SDS011;63614;56.026;35.960;2023-03-04T14:31:51;3.60;;;2.30;;
75044;SDS011;63614;56.026;35.960;2023-03-04T14:34:28;4.45;;;2.63;;
75044;SDS011;63614;56.026;35.960;2023-03-04T14:36:58;4.55;;;2.90;;
75044;SDS011;63614;56.026;35.960;2023-03-04T14:39:25;4.13;;;2.55;;
75044;SDS011;63614;56.026;35.960;2023-03-04T14:41:53;7.22;;;2.83;;
75044;SDS011;63614;56.026;35.960;2023-03-04T14:46:55;4.80;;;2.58;;
75044;SDS011;63614;56.026;35.960;2023-03-04T14:49:26;3.70;;;2.50;;
75044;SDS011;63614;56.026;35.960;2023-03-04T14:51:53;4.55;;;2.67;;
75044;SDS011;63614;56.026;35.960;2023-03-04T14:54:31;11.50;;;2.92;;
75044;SDS011;63614;56.026;35.960;2023-03-04T14:57:22;4.03;;;2.55;;
75044;SDS011;63614;56.026;35.960;2023-03-04T14:59:54;4.45;;;2.50;;
75044;SDS011;63614;56.026;35.960;2023-03-04T15:02:27;7.95;;;3.00;;
75044;SDS011;63614;56.026;35.960;2023-03-04T15:05:16;4.20;;;2.83;;
75044;SDS011;63614;56.026;35.960;2023-03-04T15:07:57;5.18;;;3.40;;
75044;SDS011;63614;56.026;35.960;2023-03-04T15:10:51;5.53;;;4.10;;
75044;SDS011;63614;56.026;35.960;2023-03-04T15:13:35;6.82;;;3.67;;
75044;SDS011;63614;56.026;35.960;2023-03-04T15:16:05;5.53;;;3.80;;
75044;SDS011;63614;56.026;35.960;2023-03-04T15:18:32;5.88;;;3.50;;
75044;SDS011;63614;56.026;35.960;2023-03-04T15:21:02;4.45;;;3.30;;
75044;SDS011;63614;56.026;35.960;2023-03-04T15:23:29;4.32;;;2.95;;
75044;SDS011;63614;56.026;35.960;2023-03-04T15:28:23;4.85;;;3.25;;
75044;SDS011;63614;56.026;35.960;2023-03-04T15:30:50;4.20;;;2.95;;
75044;SDS011;63614;56.026;35.960;2023-03-04T15:33:16;4.75;;;3.28;;
75044;SDS011;63614;56.026;35.960;2023-03-04T15:35:52;7.65;;;3.38;;
75044;SDS011;63614;56.026;35.960;2023-03-04T15:38:21;6.35;;;3.80;;
75044;SDS011;63614;56.026;35.960;2023-03-04T15:40:47;7.93;;;3.70;;
75044;SDS011;63614;56.026;35.960;2023-03-04T15:43:15;6.10;;;3.88;;
75044;SDS011;63614;56.026;35.960;2023-03-04T15:45:42;10.88;;;4.15;;
75044;SDS011;63614;56.026;35.960;2023-03-04T15:48:09;5.93;;;4.18;;
75044;SDS011;63614;56.026;35.960;2023-03-04T15:50:44;6.07;;;4.00;;
75044;SDS011;63614;56.026;35.960;2023-03-04T15:55:50;4.20;;;2.60;;
75044;SDS011;63614;56.026;35.960;2023-03-04T15:58:17;3.25;;;2.30;;
75044;SDS011;63614;56.026;35.960;2023-03-04T16:00:43;3.72;;;2.40;;
75044;SDS011;63614;56.026;35.960;2023-03-04T16:03:11;2.58;;;1.50;;
75044;SDS011;63614;56.026;35.960;2023-03-04T16:05:39;2.25;;;1.30;;
75044;SDS011;63614;56.026;35.960;2023-03-04T16:08:05;1.60;;;1.00;;
75044;SDS011;63614;56.026;35.960;2023-03-04T16:10:33;2.75;;;1.30;;
75044;SDS011;63614;56.026;35.960;2023-03-04T16:12:59;2.75;;;1.70;;
75044;SDS011;63614;56.026;35.960;2023-03-04T16:15:26;2.53;;;1.25;;
75044;SDS011;63614;56.026;35.960;2023-03-04T16:17:54;2.30;;;1.40;;
75044;SDS011;63614;56.026;35.960;2023-03-04T16:20:22;1.75;;;0.90;;
75044;SDS011;63614;56.026;35.960;2023-03-04T16:22:53;1.80;;;1.05;;
75044;SDS011;63614;56.026;35.960;2023-03-04T16:25:23;3.17;;;1.20;;
75044;SDS011;63614;56.026;35.960;2023-03-04T16:27:50;2.22;;;1.30;;
75044;SDS011;63614;56.026;35.960;2023-03-04T16:30:21;2.05;;;1.13;;
75044;SDS011;63614;56.026;35.960;2023-03-04T16:32:48;2.20;;;1.02;;
75044;SDS011;63614;56.026;35.960;2023-03-04T16:35:14;2.30;;;1.10;;
75044;SDS011;63614;56.026;35.960;2023-03-04T16:37:41;2.08;;;1.17;;
75044;SDS011;63614;56.026;35.960;2023-03-04T16:40:10;2.00;;;1.20;;
75044;SDS011;63614;56.026;35.960;2023-03-04T16:42:40;2.22;;;0.95;;
75044;SDS011;63614;56.026;35.960;2023-03-04T16:45:16;3.33;;;1.20;;
75044;SDS011;63614;56.026;35.960;2023-03-04T16:47:44;1.52;;;1.00;;
75044;SDS011;63614;56.026;35.960;2023-03-04T16:50:14;2.35;;;1.17;;
75044;SDS011;63614;56.026;35.960;2023-03-04T16:52:43;2.67;;;1.00;;
75044;SDS011;63614;56.026;35.960;2023-03-04T16:55:21;3.45;;;1.10;;
75044;SDS011;63614;56.026;35.960;2023-03-04T16:57:49;2.95;;;1.00;;
75044;SDS011;63614;56.026;35.960;2023-03-04T17:00:18;3.13;;;1.45;;
75044;SDS011;63614;56.026;35.960;2023-03-04T17:02:47;3.55;;;1.25;;
75044;SDS011;63614;56.026;35.960;2023-03-04T17:05:23;3.25;;;1.40;;